Time,TemperatureF,DewpointF,PressureIn,WindDirection,WindDirectionDegrees,WindSpeedMPH,WindSpeedGustMPH,Humidity,HourlyPrecipIn,Conditions,Clouds,dailyrainin,SolarRadiationWatts/m^2,SoftwareType,DateUTC
2013-06-10 00:01:00,56.0,55.0,-100.00,ENE,78,0.0,0.0,97,0.00,,,0.02,0.000000,,2013-06-10 04:01:00,
2013-06-10 00:23:00,56.0,55.0,-100.00,ENE,78,0.0,0.0,97,0.00,,,0.02,0.000000,,2013-06-10 04:23:00,
2013-06-10 00:33:00,56.0,55.0,-100.00,ENE,78,0.0,0.0,97,0.00,,,0.02,0.000000,,2013-06-10 04:33:00,
2013-06-10 00:42:00,56.0,55.0,-100.00,ENE,78,0.0,0.0,97,0.00,,,0.02,0.000000,,2013-06-10 04:42:00,
2013-06-10 00:53:00,56.0,55.0,-100.00,ENE,78,0.0,0.0,97,0.00,,,0.02,0.000000,,2013-06-10 04:53:00,
2013-06-10 01:01:00,55.0,54.0,-100.00,ESE,110,0.0,0.0,97,0.00,,,0.02,0.000000,,2013-06-10 05:01:00,
2013-06-10 01:22:00,55.0,54.0,-100.00,ESE,110,0.0,0.0,97,0.00,,,0.02,0.000000,,2013-06-10 05:22:00,
2013-06-10 01:32:00,55.0,54.0,-100.00,ESE,110,0.0,0.0,97,0.00,,,0.02,0.000000,,2013-06-10 05:32:00,
2013-06-10 01:42:00,55.0,54.0,-100.00,ESE,110,0.0,0.0,97,0.00,,,0.02,0.000000,,2013-06-10 05:42:00,
2013-06-10 01:52:00,55.0,54.0,-100.00,ESE,110,0.0,0.0,97,0.00,,,0.02,0.000000,,2013-06-10 05:52:00,
2013-06-10 02:01:00,54.0,53.0,-100.00,NE,56,0.0,0.0,97,0.00,,,0.02,0.000000,,2013-06-10 06:01:00,
2013-06-10 02:22:00,54.0,53.0,-100.00,NE,56,0.0,0.0,97,0.00,,,0.02,0.000000,,2013-06-10 06:22:00,
2013-06-10 02:32:00,54.0,53.0,-100.00,NE,56,0.0,0.0,97,0.00,,,0.02,0.000000,,2013-06-10 06:32:00,
2013-06-10 02:42:00,54.0,53.0,-100.00,NE,56,0.0,0.0,97,0.00,,,0.02,0.000000,,2013-06-10 06:42:00,
2013-06-10 02:53:00,54.0,53.0,-100.00,NE,56,0.0,0.0,97,0.00,,,0.02,0.000000,,2013-06-10 06:53:00,
2013-06-10 03:01:00,53.0,52.0,-100.00,NE,56,0.0,0.0,98,0.00,,,0.02,0.000000,,2013-06-10 07:01:00,
2013-06-10 03:22:00,53.0,52.0,-100.00,NE,56,0.0,0.0,98,0.00,,,0.02,0.000000,,2013-06-10 07:22:00,
2013-06-10 03:32:00,53.0,52.0,-100.00,NE,56,0.0,0.0,98,0.00,,,0.02,0.000000,,2013-06-10 07:32:00,
2013-06-10 03:42:00,53.0,52.0,-100.00,NE,56,0.0,0.0,98,0.00,,,0.02,0.000000,,2013-06-10 07:42:00,
2013-06-10 03:52:00,53.0,52.0,-100.00,NE,56,0.0,0.0,98,0.00,,,0.02,0.000000,,2013-06-10 07:52:00,
2013-06-10 04:01:00,52.0,51.0,-100.00,NE,46,0.0,0.0,98,0.00,,,0.02,0.000000,,2013-06-10 08:01:00,
2013-06-10 04:22:00,52.0,51.0,-100.00,NE,46,0.0,0.0,98,0.00,,,0.02,0.000000,,2013-06-10 08:22:00,
2013-06-10 04:32:00,52.0,51.0,-100.00,NE,46,0.0,0.0,98,0.00,,,0.02,0.000000,,2013-06-10 08:32:00,
2013-06-10 04:42:00,52.0,51.0,-100.00,NE,46,0.0,0.0,98,0.00,,,0.02,0.000000,,2013-06-10 08:42:00,
2013-06-10 04:52:00,52.0,51.0,-100.00,NE,46,0.0,0.0,98,0.00,,,0.02,0.000000,,2013-06-10 08:52:00,
2013-06-10 05:01:00,51.0,50.0,-100.00,NE,46,0.0,0.0,98,0.00,,,0.02,0.000000,,2013-06-10 09:01:00,
2013-06-10 05:22:00,51.0,50.0,-100.00,NE,46,0.0,0.0,98,0.00,,,0.02,0.000000,,2013-06-10 09:22:00,
2013-06-10 05:32:00,51.0,50.0,-100.00,NE,46,0.0,0.0,98,0.00,,,0.02,0.000000,,2013-06-10 09:32:00,
2013-06-10 05:43:00,51.0,50.0,-100.00,NE,46,0.0,0.0,98,0.00,,,0.02,0.000000,,2013-06-10 09:43:00,
2013-06-10 05:53:00,51.0,50.0,-100.00,NE,46,0.0,0.0,98,0.00,,,0.02,0.000000,,2013-06-10 09:53:00,
2013-06-10 06:01:00,51.0,50.0,-100.00,NE,50,0.0,0.0,98,0.00,,,0.00,12.000000,,2013-06-10 10:01:00,
2013-06-10 06:23:00,51.0,50.0,-100.00,NE,50,0.0,0.0,98,0.00,,,0.00,12.000000,,2013-06-10 10:23:00,
2013-06-10 06:33:00,51.0,50.0,-100.00,NE,50,0.0,0.0,98,0.00,,,0.00,12.000000,,2013-06-10 10:33:00,
2013-06-10 06:42:00,51.0,50.0,-100.00,NE,50,0.0,0.0,98,0.00,,,0.00,12.000000,,2013-06-10 10:42:00,
2013-06-10 06:52:00,51.0,50.0,-100.00,NE,50,0.0,0.0,98,0.00,,,0.00,12.000000,,2013-06-10 10:52:00,
2013-06-10 09:01:00,66.0,63.0,-100.00,NW,304,0.0,4.0,90,-99.99,,,0.00,312.000000,,2013-06-10 13:01:00,
2013-06-10 09:32:00,66.0,63.0,-100.00,NW,304,0.0,4.0,90,-99.99,,,0.00,312.000000,,2013-06-10 13:32:00,
2013-06-10 09:42:00,66.0,63.0,-100.00,NW,304,0.0,4.0,90,-99.99,,,0.00,312.000000,,2013-06-10 13:42:00,
2013-06-10 09:52:00,66.0,63.0,-100.00,NW,304,0.0,4.0,90,-99.99,,,0.00,312.000000,,2013-06-10 13:52:00,
2013-06-10 10:01:00,75.0,62.0,-100.00,SE,134,0.0,6.0,64,0.00,,,0.00,547.000000,,2013-06-10 14:01:00,
2013-06-10 10:22:00,75.0,62.0,-100.00,SE,134,0.0,6.0,64,0.00,,,0.00,547.000000,,2013-06-10 14:22:00,
2013-06-10 10:32:00,75.0,62.0,-100.00,SE,134,0.0,6.0,64,0.00,,,0.00,547.000000,,2013-06-10 14:32:00,
2013-06-10 10:42:00,75.0,62.0,-100.00,SE,134,0.0,6.0,64,0.00,,,0.00,547.000000,,2013-06-10 14:42:00,
2013-06-10 10:52:00,75.0,62.0,-100.00,SE,134,0.0,6.0,64,0.00,,,0.00,547.000000,,2013-06-10 14:52:00,
2013-06-10 11:01:00,78.0,58.0,-100.00,SSE,157,1.0,5.0,50,0.00,,,0.00,558.000000,,2013-06-10 15:01:00,
2013-06-10 11:22:00,78.0,58.0,-100.00,SSE,157,1.0,5.0,50,0.00,,,0.00,558.000000,,2013-06-10 15:22:00,
2013-06-10 11:33:00,78.0,58.0,-100.00,SSE,157,1.0,5.0,50,0.00,,,0.00,558.000000,,2013-06-10 15:33:00,
2013-06-10 11:43:00,78.0,58.0,-100.00,SSE,157,1.0,5.0,50,0.00,,,0.00,558.000000,,2013-06-10 15:43:00,
2013-06-10 11:53:00,78.0,58.0,-100.00,SSE,157,1.0,5.0,50,0.00,,,0.00,558.000000,,2013-06-10 15:53:00,
2013-06-10 12:01:00,80.0,60.0,-100.00,ENE,65,0.0,6.0,51,0.00,,,0.00,700.000000,,2013-06-10 16:01:00,
2013-06-10 12:23:00,80.0,60.0,-100.00,ENE,65,0.0,6.0,51,0.00,,,0.00,700.000000,,2013-06-10 16:23:00,
2013-06-10 12:33:00,80.0,60.0,-100.00,ENE,65,0.0,6.0,51,0.00,,,0.00,700.000000,,2013-06-10 16:33:00,
2013-06-10 12:43:00,80.0,60.0,-100.00,ENE,65,0.0,6.0,51,0.00,,,0.00,700.000000,,2013-06-10 16:43:00,
2013-06-10 12:53:00,80.0,60.0,-100.00,ENE,65,0.0,6.0,51,0.00,,,0.00,700.000000,,2013-06-10 16:53:00,
2013-06-10 13:01:00,79.0,49.0,-100.00,South,187,3.0,10.0,35,0.00,,,0.00,543.000000,,2013-06-10 17:01:00,
2013-06-10 13:27:00,79.0,49.0,-100.00,South,187,3.0,10.0,35,0.00,,,0.00,543.000000,,2013-06-10 17:27:00,
2013-06-10 13:38:00,79.0,49.0,-100.00,South,187,3.0,10.0,35,0.00,,,0.00,543.000000,,2013-06-10 17:38:00,
2013-06-10 13:48:00,79.0,49.0,-100.00,South,187,3.0,10.0,35,0.00,,,0.00,543.000000,,2013-06-10 17:48:00,
2013-06-10 13:58:00,79.0,49.0,-100.00,South,187,3.0,10.0,35,0.00,,,0.00,543.000000,,2013-06-10 17:58:00,
2013-06-10 14:01:00,79.0,52.0,-100.00,South,181,2.0,7.0,39,0.00,,,0.00,507.000000,,2013-06-10 18:01:00,
2013-06-10 14:25:00,79.0,52.0,-100.00,South,181,2.0,7.0,39,0.00,,,0.00,507.000000,,2013-06-10 18:25:00,
2013-06-10 14:35:00,79.0,52.0,-100.00,South,181,2.0,7.0,39,0.00,,,0.00,507.000000,,2013-06-10 18:35:00,
2013-06-10 14:48:00,79.0,52.0,-100.00,South,181,2.0,7.0,39,0.00,,,0.00,507.000000,,2013-06-10 18:48:00,
2013-06-10 14:55:00,79.0,52.0,-100.00,South,181,2.0,7.0,39,0.00,,,0.00,507.000000,,2013-06-10 18:55:00,
2013-06-10 15:01:00,80.0,53.0,-100.00,SE,135,2.0,7.0,39,0.00,,,0.00,528.000000,,2013-06-10 19:01:00,
2013-06-10 15:23:00,80.0,53.0,-100.00,SE,135,2.0,7.0,39,0.00,,,0.00,528.000000,,2013-06-10 19:23:00,
2013-06-10 15:33:00,80.0,53.0,-100.00,SE,135,2.0,7.0,39,0.00,,,0.00,528.000000,,2013-06-10 19:33:00,
2013-06-10 15:43:00,80.0,53.0,-100.00,SE,135,2.0,7.0,39,0.00,,,0.00,528.000000,,2013-06-10 19:43:00,
2013-06-10 15:53:00,80.0,53.0,-100.00,SE,135,2.0,7.0,39,0.00,,,0.00,528.000000,,2013-06-10 19:53:00,
2013-06-10 16:01:00,77.0,53.0,-100.00,South,174,2.0,7.0,44,0.00,,,0.00,333.000000,,2013-06-10 20:01:00,
2013-06-10 16:23:00,77.0,53.0,-100.00,South,174,2.0,7.0,44,0.00,,,0.00,333.000000,,2013-06-10 20:23:00,
2013-06-10 16:32:00,77.0,53.0,-100.00,South,174,2.0,7.0,44,0.00,,,0.00,333.000000,,2013-06-10 20:32:00,
2013-06-10 16:43:00,77.0,53.0,-100.00,South,174,2.0,7.0,44,0.00,,,0.00,333.000000,,2013-06-10 20:43:00,
2013-06-10 16:53:00,77.0,53.0,-100.00,South,174,2.0,7.0,44,0.00,,,0.00,333.000000,,2013-06-10 20:53:00,
2013-06-10 17:01:00,76.0,55.0,-100.00,SSE,154,2.0,9.0,49,0.00,,,0.00,280.000000,,2013-06-10 21:01:00,
2013-06-10 17:23:00,76.0,55.0,-100.00,SSE,154,2.0,9.0,49,0.00,,,0.00,280.000000,,2013-06-10 21:23:00,
2013-06-10 17:34:00,76.0,55.0,-100.00,SSE,154,2.0,9.0,49,0.00,,,0.00,280.000000,,2013-06-10 21:34:00,
2013-06-10 17:43:00,76.0,55.0,-100.00,SSE,154,2.0,9.0,49,0.00,,,0.00,280.000000,,2013-06-10 21:43:00,
2013-06-10 17:53:00,76.0,55.0,-100.00,SSE,154,2.0,9.0,49,0.00,,,0.00,280.000000,,2013-06-10 21:53:00,
2013-06-10 18:01:00,73.0,55.0,-100.00,SSE,155,2.0,7.0,53,0.00,,,0.00,147.000000,,2013-06-10 22:01:00,
2013-06-10 18:23:00,73.0,55.0,-100.00,SSE,155,2.0,7.0,53,0.00,,,0.00,147.000000,,2013-06-10 22:23:00,
2013-06-10 18:33:00,73.0,55.0,-100.00,SSE,155,2.0,7.0,53,0.00,,,0.00,147.000000,,2013-06-10 22:33:00,
2013-06-10 18:42:00,73.0,55.0,-100.00,SSE,155,2.0,7.0,53,0.00,,,0.00,147.000000,,2013-06-10 22:42:00,
2013-06-10 18:52:00,73.0,55.0,-100.00,SSE,155,2.0,7.0,53,0.00,,,0.00,147.000000,,2013-06-10 22:52:00,
2013-06-10 19:01:00,69.0,56.0,-100.00,SSE,148,1.0,7.0,63,0.00,,,0.00,74.000000,,2013-06-10 23:01:00,
2013-06-10 19:22:00,69.0,56.0,-100.00,SSE,148,1.0,7.0,63,0.00,,,0.00,74.000000,,2013-06-10 23:22:00,
2013-06-10 19:32:00,69.0,56.0,-100.00,SSE,148,1.0,7.0,63,0.00,,,0.00,74.000000,,2013-06-10 23:32:00,
2013-06-10 19:42:00,69.0,56.0,-100.00,SSE,148,1.0,7.0,63,0.00,,,0.00,74.000000,,2013-06-10 23:42:00,
2013-06-10 19:52:00,69.0,56.0,-100.00,SSE,148,1.0,7.0,63,0.00,,,0.00,74.000000,,2013-06-10 23:52:00,
2013-06-10 20:01:00,64.0,61.0,-100.00,ENE,71,0.0,3.0,89,0.00,,,0.00,27.000000,,2013-06-11 00:01:00,
2013-06-10 20:22:00,64.0,61.0,-100.00,ENE,71,0.0,3.0,89,0.00,,,0.00,27.000000,,2013-06-11 00:22:00,
2013-06-10 20:32:00,64.0,61.0,-100.00,ENE,71,0.0,3.0,89,0.00,,,0.00,27.000000,,2013-06-11 00:32:00,
2013-06-10 20:43:00,64.0,61.0,-100.00,ENE,71,0.0,3.0,89,0.00,,,0.00,27.000000,,2013-06-11 00:43:00,
2013-06-10 20:52:00,64.0,61.0,-100.00,ENE,71,0.0,3.0,89,0.00,,,0.00,27.000000,,2013-06-11 00:52:00,
2013-06-10 21:01:00,62.0,60.0,-100.00,North,8,0.0,4.0,94,0.02,,,0.02,4.000000,,2013-06-11 01:01:00,
2013-06-10 21:22:00,62.0,60.0,-100.00,North,8,0.0,4.0,94,0.02,,,0.02,4.000000,,2013-06-11 01:22:00,
2013-06-10 21:33:00,62.0,60.0,-100.00,North,8,0.0,4.0,94,0.02,,,0.02,4.000000,,2013-06-11 01:33:00,
2013-06-10 21:42:00,62.0,60.0,-100.00,North,8,0.0,4.0,94,0.02,,,0.02,4.000000,,2013-06-11 01:42:00,
2013-06-10 21:53:00,62.0,60.0,-100.00,North,8,0.0,4.0,94,0.02,,,0.02,4.000000,,2013-06-11 01:53:00,
2013-06-10 22:01:00,61.0,60.0,-100.00,North,11,0.0,1.0,96,0.03,,,0.05,0.000000,,2013-06-11 02:01:00,
2013-06-10 22:22:00,61.0,60.0,-100.00,North,11,0.0,1.0,96,0.03,,,0.05,0.000000,,2013-06-11 02:22:00,
2013-06-10 22:32:00,61.0,60.0,-100.00,North,11,0.0,1.0,96,0.03,,,0.05,0.000000,,2013-06-11 02:32:00,
2013-06-10 22:43:00,61.0,60.0,-100.00,North,11,0.0,1.0,96,0.03,,,0.05,0.000000,,2013-06-11 02:43:00,
2013-06-10 22:52:00,61.0,60.0,-100.00,North,11,0.0,1.0,96,0.03,,,0.05,0.000000,,2013-06-11 02:52:00,
2013-06-10 23:01:00,60.0,59.0,-100.00,North,352,0.0,0.0,97,0.01,,,0.06,0.000000,,2013-06-11 03:01:00,
2013-06-10 23:22:00,60.0,59.0,-100.00,North,352,0.0,0.0,97,0.01,,,0.06,0.000000,,2013-06-11 03:22:00,
2013-06-10 23:33:00,60.0,59.0,-100.00,North,352,0.0,0.0,97,0.01,,,0.06,0.000000,,2013-06-11 03:33:00,
2013-06-10 23:43:00,60.0,59.0,-100.00,North,352,0.0,0.0,97,0.01,,,0.06,0.000000,,2013-06-11 03:43:00,
2013-06-10 23:53:00,60.0,59.0,-100.00,North,352,0.0,0.0,97,0.01,,,0.06,0.000000,,2013-06-11 03:53:00,